CheckWX is a tool to help pilots better visualize weather data.  It is not intended as a substitute for an official pre-flight weather briefing.

13:52:37 UTC

GMFO TAF
Angads Airport
Oujda, Morocco
TAF GMFO 221100Z 2212/2318 34010KT 9999 -RA SCT020 SCT040 BKN090 PROB30 TEMPO 2304/2308 TSRA FEW040CB

Oct-22@
12:00 UTC

Oct-22 @ 12:00 UTC

Oct-23@
18:00 UTC

Oct-23 @ 18:00 UTC

TAF GMFO 221100Z 2212/2318 34010KT 9999 -RA SCT020 SCT040 BKN090
Wind
  • 340° at 10 KTS
Conditions
Light Rain
Cloud Levels
  • Scattered at 2,000' AGL
  • Scattered at 4,000' AGL
  • Broken at 9,000' AGL

Oct-23@
04:00 UTC

Oct-23 @ 04:00 UTC

Oct-23@
08:00 UTC

Oct-23 @ 08:00 UTC

PROB30 TEMPO 2304/2308 TSRA FEW040CB

Temporary - 30% Likelihood

Temporary - 30% Likelihood during this time.

Conditions
Thunderstorm, Rain
Cloud Levels
  • Few at 4,000' AGL